Time;durP1;ratioP1;P1;durP2;ratioP2;P2;SDS_P1;SDS_P2;PMS_P1;PMS_P2;Temp;Humidity;BMP_temperature;BMP_pressure;BME280_temperature;BME280_humidity;BME280_pressure;Samples;Min_cycle;Max_cycle;Signal;HPM_P1;HPM_P2
2021/12/25 00:01:02;;;;;;;9.02;5.75;;;9.20;99.90;;;;;;5036769;28;20173;-81
2021/12/25 00:03:27;;;;;;;8.25;6.30;;;9.30;99.90;;;;;;5052435;28;20178;-82
2021/12/25 00:05:54;;;;;;;8.27;5.20;;;9.20;99.90;;;;;;5048092;28;20536;-81
2021/12/25 00:08:24;;;;;;;5.65;4.32;;;9.40;99.90;;;;;;5056951;28;20287;-81
2021/12/25 00:10:50;;;;;;;9.77;5.80;;;9.10;99.90;;;;;;5037365;28;20209;-81
2021/12/25 00:13:18;;;;;;;8.35;6.20;;;9.20;99.90;;;;;;5042907;28;20234;-80
2021/12/25 00:15:44;;;;;;;9.60;6.32;;;9.00;99.90;;;;;;5049449;28;20190;-80
2021/12/25 00:18:10;;;;;;;9.00;6.10;;;;;;;;;;5059651;28;20181;-80
2021/12/25 00:20:36;;;;;;;11.90;6.28;;;9.20;99.90;;;;;;5042758;28;20519;-81
2021/12/25 00:23:05;;;;;;;10.47;8.10;;;;;;;;;;5043755;28;20178;-80
2021/12/25 00:25:35;;;;;;;12.85;7.88;;;9.00;99.90;;;;;;5053535;28;20192;-80
2021/12/25 00:28:18;;;;;;;11.68;7.15;;;9.00;99.90;;;;;;5062852;28;20185;-80
2021/12/25 00:31:04;;;;;;;9.63;6.47;;;9.00;99.90;;;;;;5058455;28;20220;-80
2021/12/25 00:34:05;;;;;;;9.25;6.68;;;8.90;99.90;;;;;;5055972;28;20252;-80
2021/12/25 00:36:23;;;;;;;9.48;7.10;;;;;;;;;;5049443;28;20593;-80
2021/12/25 00:38:49;;;;;;;14.93;7.85;;;;;;;;;;5053513;28;20234;-80
2021/12/25 00:41:19;;;;;;;13.05;7.28;;;9.10;99.90;;;;;;5051980;28;20208;-80
2021/12/25 00:43:45;;;;;;;11.75;7.30;;;9.10;99.90;;;;;;5059098;28;20179;-81
2021/12/25 00:46:11;;;;;;;12.32;7.30;;;9.20;99.90;;;;;;5053136;28;20511;-81
2021/12/25 00:48:37;;;;;;;13.43;7.77;;;9.10;99.90;;;;;;5053949;28;20192;-81
2021/12/25 00:51:04;;;;;;;15.03;7.40;;;9.10;99.90;;;;;;5054664;28;20455;-80
2021/12/25 00:53:30;;;;;;;16.42;9.63;;;;;;;;;;5055307;28;20455;-80
2021/12/25 00:55:56;;;;;;;17.38;9.95;;;9.00;99.90;;;;;;5056750;28;20221;-80
2021/12/25 00:58:22;;;;;;;16.73;9.33;;;9.00;99.90;;;;;;5050019;28;20173;-80
2021/12/25 01:00:48;;;;;;;19.07;10.27;;;;;;;;;;5040788;28;20522;-81
2021/12/25 01:03:14;;;;;;;18.00;10.45;;;8.60;99.90;;;;;;5062579;28;20440;-81
2021/12/25 01:05:40;;;;;;;18.53;10.50;;;8.70;99.90;;;;;;5061502;28;20205;-82
2021/12/25 01:08:06;;;;;;;20.23;11.47;;;8.80;99.90;;;;;;5053153;28;20176;-84
2021/12/25 01:10:33;;;;;;;15.93;10.70;;;8.70;99.90;;;;;;5029177;28;20196;-83
2021/12/25 01:13:07;;;;;;;17.90;10.75;;;8.70;99.90;;;;;;5051489;28;20169;-83
2021/12/25 01:21:29;;;;;;;20.40;14.00;;;8.50;99.90;;;;;;5049987;28;20605;-83
2021/12/25 01:27:03;;;;;;;20.77;12.52;;;8.50;99.90;;;;;;5051582;28;20743;-83
2021/12/25 01:32:36;;;;;;;18.35;11.68;;;8.40;99.90;;;;;;5048422;28;20781;-82
2021/12/25 01:37:46;;;;;;;18.65;11.38;;;;;;;;;;5048706;28;20204;-82
2021/12/25 01:48:26;;;;;;;15.48;10.43;;;8.70;99.90;;;;;;5043820;28;20193;-83
2021/12/25 01:50:53;;;;;;;16.27;9.50;;;8.60;99.90;;;;;;5049705;28;20190;-82
2021/12/25 01:53:19;;;;;;;18.15;9.38;;;8.70;99.90;;;;;;5032290;28;20434;-82
2021/12/25 01:55:45;;;;;;;21.27;10.13;;;8.60;99.90;;;;;;5044191;28;20209;-83
2021/12/25 01:58:11;;;;;;;19.70;9.77;;;;;;;;;;5032272;28;20184;-82
2021/12/25 02:00:46;;;;;;;16.38;10.70;;;8.80;99.90;;;;;;5042321;28;20420;-82
2021/12/25 02:03:14;;;;;;;18.58;10.95;;;9.00;99.90;;;;;;5049517;28;20180;-82
2021/12/25 02:05:41;;;;;;;21.25;9.95;;;9.00;99.90;;;;;;5057994;28;20681;-81
2021/12/25 02:08:07;;;;;;;18.50;11.07;;;9.00;99.90;;;;;;5052520;28;20219;-81
2021/12/25 02:10:32;;;;;;;19.17;10.23;;;9.20;99.90;;;;;;5034772;28;20181;-82
2021/12/25 02:12:59;;;;;;;21.13;11.60;;;;;;;;;;5048150;28;20443;-81
2021/12/25 02:15:27;;;;;;;18.20;9.10;;;;;;;;;;5048382;28;20197;-82
2021/12/25 02:18:16;;;;;;;16.33;9.88;;;;;;;;;;5051594;28;20176;-82
2021/12/25 02:20:56;;;;;;;17.05;9.80;;;9.10;99.90;;;;;;5051968;28;20180;-82
2021/12/25 02:23:24;;;;;;;16.20;9.80;;;9.20;99.90;;;;;;5049401;28;20179;-82
2021/12/25 02:25:52;;;;;;;26.15;11.75;;;9.00;99.90;;;;;;5055409;28;20421;-81
2021/12/25 02:28:18;;;;;;;20.42;11.65;;;8.70;99.90;;;;;;5039227;28;20174;-81
2021/12/25 02:30:47;;;;;;;24.13;12.43;;;9.00;99.90;;;;;;5051302;28;20261;-81
2021/12/25 02:33:13;;;;;;;19.42;10.80;;;8.90;99.90;;;;;;5056175;28;20727;-81
2021/12/25 02:35:39;;;;;;;24.20;12.50;;;;;;;;;;5042679;28;20243;-81
2021/12/25 02:38:05;;;;;;;24.83;11.65;;;;;;;;;;5048861;28;20447;-81
2021/12/25 02:40:32;;;;;;;23.23;11.23;;;;;;;;;;5047823;28;20173;-81
2021/12/25 02:42:58;;;;;;;22.67;11.02;;;;;;;;;;5064116;28;20200;-81
2021/12/25 02:45:23;;;;;;;15.88;10.15;;;8.90;99.90;;;;;;5060534;28;20197;-79
2021/12/25 02:47:53;;;;;;;21.27;12.80;;;8.80;99.90;;;;;;5039457;28;20181;-80
2021/12/25 02:50:27;;;;;;;26.67;12.40;;;8.80;99.90;;;;;;5056951;28;20500;-80
2021/12/25 02:52:53;;;;;;;23.55;11.73;;;;;;;;;;5055033;28;20286;-81
2021/12/25 02:55:19;;;;;;;21.05;10.70;;;8.90;99.90;;;;;;5057370;28;20582;-80
2021/12/25 02:57:50;;;;;;;24.17;11.98;;;;;;;;;;5045858;28;20234;-83
2021/12/25 03:00:18;;;;;;;22.15;11.55;;;8.90;99.90;;;;;;5043871;28;20620;-82
2021/12/25 03:02:44;;;;;;;21.88;12.25;;;;;;;;;;5042552;28;20258;-82
2021/12/25 03:05:10;;;;;;;20.67;12.20;;;;;;;;;;5042928;28;20827;-82
2021/12/25 03:07:36;;;;;;;22.10;13.32;;;;;;;;;;5038398;28;20471;-80
2021/12/25 03:10:03;;;;;;;24.53;12.90;;;9.00;99.90;;;;;;5018765;28;20217;-82
2021/12/25 03:12:36;;;;;;;21.98;11.95;;;9.00;99.90;;;;;;5023949;28;20476;-81
2021/12/25 03:15:06;;;;;;;21.40;13.20;;;;;;;;;;5039308;28;20181;-83
2021/12/25 03:17:34;;;;;;;22.45;11.73;;;9.00;99.90;;;;;;5039250;28;20169;-83
2021/12/25 03:20:00;;;;;;;24.48;14.52;;;8.80;99.90;;;;;;5022359;28;20181;-83
2021/12/25 03:22:26;;;;;;;27.25;14.07;;;8.50;99.90;;;;;;5038161;28;20185;-83
2021/12/25 03:24:52;;;;;;;26.47;14.10;;;;;;;;;;5039942;28;20215;-83
2021/12/25 03:27:18;;;;;;;24.85;14.50;;;8.60;99.90;;;;;;5030348;28;20487;-83
2021/12/25 03:29:43;;;;;;;29.87;14.40;;;8.70;99.90;;;;;;5039474;28;20190;-83
2021/12/25 03:32:10;;;;;;;21.67;13.73;;;8.90;99.90;;;;;;5040111;28;20515;-83
2021/12/25 03:34:36;;;;;;;25.45;13.10;;;8.80;99.90;;;;;;5040640;28;20188;-82
2021/12/25 03:37:02;;;;;;;21.27;13.00;;;;;;;;;;5019886;28;21178;-82
2021/12/25 03:39:28;;;;;;;21.88;12.38;;;;;;;;;;5041090;28;20434;-83
2021/12/25 03:41:56;;;;;;;23.30;13.50;;;8.50;99.90;;;;;;5042971;28;20542;-83
2021/12/25 03:44:22;;;;;;;26.15;12.35;;;;;;;;;;5039922;28;20209;-83
2021/12/25 03:46:48;;;;;;;21.10;12.20;;;;;;;;;;5042448;28;20240;-83
2021/12/25 03:49:26;;;;;;;19.27;10.63;;;8.50;99.90;;;;;;5040618;28;20504;-83
2021/12/25 03:57:40;;;;;;;18.75;10.40;;;;;;;;;;5038246;28;20704;-82
2021/12/25 04:00:07;;;;;;;24.45;11.07;;;8.00;99.90;;;;;;5041118;28;20172;-82
2021/12/25 04:02:37;;;;;;;23.13;11.23;;;8.30;99.90;;;;;;5037453;28;20224;-83
2021/12/25 04:05:06;;;;;;;20.23;10.05;;;8.30;99.90;;;;;;5040642;28;20190;-83
2021/12/25 04:10:16;;;;;;;20.95;11.43;;;8.20;99.90;;;;;;5039635;28;20195;-84
2021/12/25 04:12:42;;;;;;;20.60;10.20;;;;;;;;;;5026809;28;20288;-84
2021/12/25 04:15:08;;;;;;;23.17;11.43;;;;;;;;;;5035925;28;20186;-83
2021/12/25 04:17:34;;;;;;;22.30;12.50;;;;;;;;;;5038710;28;20439;-82
2021/12/25 04:20:03;;;;;;;22.15;11.35;;;;;;;;;;5042789;28;20460;-82
2021/12/25 04:22:37;;;;;;;23.45;12.65;;;;;;;;;;5037904;28;20252;-82
2021/12/25 04:25:03;;;;;;;27.35;13.23;;;8.30;99.90;;;;;;5037160;28;20787;-82
2021/12/25 04:27:29;;;;;;;23.03;12.27;;;8.30;99.90;;;;;;5029262;28;20213;-82
2021/12/25 04:30:04;;;;;;;22.87;11.13;;;;;;;;;;5040108;28;20439;-82
2021/12/25 05:02:21;;;;;;;15.20;8.45;;;8.10;99.90;;;;;;5040053;28;20355;-83
2021/12/25 05:04:55;;;;;;;16.15;9.38;;;8.10;99.90;;;;;;5037443;28;20322;-81
2021/12/25 05:07:21;;;;;;;16.35;9.00;;;;;;;;;;5038920;28;20250;-82
2021/12/25 05:09:47;;;;;;;20.13;9.30;;;;;;;;;;5039694;28;20185;-82
2021/12/25 05:12:13;;;;;;;17.47;8.50;;;;;;;;;;5038220;28;20467;-82
2021/12/25 05:14:39;;;;;;;17.90;9.17;;;8.10;99.90;;;;;;5019675;28;20432;-82
2021/12/25 05:17:07;;;;;;;13.47;7.67;;;8.10;99.90;;;;;;5038141;28;20455;-82
2021/12/25 05:19:33;;;;;;;12.90;7.47;;;;;;;;;;5037463;28;20174;-84
2021/12/25 05:21:59;;;;;;;10.40;7.10;;;8.20;99.90;;;;;;5038866;28;20192;-84
2021/12/25 05:24:27;;;;;;;14.37;7.20;;;8.20;99.90;;;;;;5038399;28;20646;-84
2021/12/25 05:26:56;;;;;;;14.02;8.55;;;8.10;99.90;;;;;;5039461;28;20491;-84
2021/12/25 05:29:24;;;;;;;17.25;8.80;;;8.10;99.90;;;;;;5039777;28;20946;-84
2021/12/25 05:31:50;;;;;;;14.00;7.85;;;8.20;99.90;;;;;;5039168;28;20236;-82
2021/12/25 05:34:16;;;;;;;17.37;9.37;;;;;;;;;;5038380;28;20205;-81
2021/12/25 05:36:41;;;;;;;15.03;9.20;;;8.40;99.90;;;;;;5038281;28;20490;-81
2021/12/25 05:39:11;;;;;;;18.23;8.90;;;;;;;;;;5043133;28;20506;-85
2021/12/25 05:41:37;;;;;;;14.38;8.95;;;;;;;;;;5042827;28;20685;-82
2021/12/25 05:44:03;;;;;;;17.07;9.40;;;;;;;;;;5029309;28;20193;-81
2021/12/25 05:46:29;;;;;;;13.45;7.30;;;8.50;99.90;;;;;;5044959;28;20528;-83
2021/12/25 05:48:55;;;;;;;13.83;7.80;;;;;;;;;;5043983;28;20185;-83
2021/12/25 05:51:21;;;;;;;286.07;32.97;;;;;;;;;;5042392;28;20205;-83
2021/12/25 05:53:47;;;;;;;79.93;16.83;;;8.10;99.90;;;;;;5043613;28;20568;-84
2021/12/25 05:56:13;;;;;;;41.57;13.10;;;8.10;99.90;;;;;;5041686;28;20247;-83
2021/12/25 05:58:39;;;;;;;212.80;27.33;;;7.90;99.90;;;;;;5043694;28;21161;-84
2021/12/25 06:01:05;;;;;;;153.43;19.87;;;7.90;99.90;;;;;;5040683;28;20186;-84
2021/12/25 06:03:31;;;;;;;30.80;11.85;;;7.90;99.90;;;;;;5041441;28;20193;-82
2021/12/25 06:05:57;;;;;;;22.77;12.43;;;7.80;99.90;;;;;;5039164;28;20225;-80
2021/12/25 06:08:24;;;;;;;14.32;8.30;;;7.90;99.90;;;;;;5042447;28;20188;-81
2021/12/25 06:10:50;;;;;;;19.67;9.75;;;7.90;99.90;;;;;;5041488;28;20192;-83
2021/12/25 06:13:19;;;;;;;16.30;9.67;;;8.00;99.90;;;;;;5027689;28;20617;-84
2021/12/25 06:15:45;;;;;;;489.75;49.53;;;8.10;99.90;;;;;;5038317;28;20246;-84
2021/12/25 06:18:11;;;;;;;614.67;64.93;;;7.90;99.90;;;;;;5042239;28;20828;-85
2021/12/25 06:20:39;;;;;;;558.58;57.42;;;7.60;99.90;;;;;;5042599;28;20459;-84
2021/12/25 06:23:05;;;;;;;564.05;53.88;;;7.70;99.90;;;;;;5044267;28;20224;-85
2021/12/25 06:25:31;;;;;;;390.33;39.93;;;7.60;99.90;;;;;;5042279;28;20213;-83
2021/12/25 06:27:57;;;;;;;439.17;46.03;;;7.60;99.90;;;;;;5040818;28;20555;-83
2021/12/25 06:30:23;;;;;;;283.50;30.60;;;;;;;;;;5039613;28;20191;-83
2021/12/25 06:32:48;;;;;;;251.30;37.80;;;7.40;99.90;;;;;;5030647;28;20839;-82
2021/12/25 06:35:14;;;;;;;379.50;35.43;;;7.70;99.90;;;;;;5018209;28;20427;-85
2021/12/25 06:37:42;;;;;;;244.60;27.00;;;;;;;;;;5022454;28;20192;-85
2021/12/25 06:40:10;;;;;;;142.55;23.60;;;7.80;99.90;;;;;;5042536;28;21016;-81
2021/12/25 06:42:37;;;;;;;71.10;18.40;;;7.70;99.90;;;;;;5041221;28;20268;-81
2021/12/25 06:45:04;;;;;;;187.65;26.73;;;7.50;99.90;;;;;;5040647;28;20642;-81
2021/12/25 06:47:30;;;;;;;90.80;19.80;;;7.90;99.90;;;;;;5038267;28;20186;-82
2021/12/25 06:49:55;;;;;;;45.33;17.83;;;8.00;99.90;;;;;;5040136;28;20693;-83
2021/12/25 06:52:21;;;;;;;42.17;16.97;;;;;;;;;;5040696;28;20202;-83
2021/12/25 06:54:47;;;;;;;26.00;14.75;;;;;;;;;;5029604;28;20242;-81
2021/12/25 06:57:13;;;;;;;24.70;15.48;;;;;;;;;;5040478;28;20697;-81
2021/12/25 06:59:39;;;;;;;22.60;14.18;;;;;;;;;;5041001;28;20244;-81
2021/12/25 07:02:06;;;;;;;16.40;11.70;;;;;;;;;;5040580;28;20600;-83
2021/12/25 07:04:32;;;;;;;18.80;12.02;;;;;;;;;;5041722;28;20441;-83
2021/12/25 07:06:57;;;;;;;22.53;12.03;;;;;;;;;;5041543;28;20216;-83
2021/12/25 07:09:23;;;;;;;20.63;12.13;;;;;;;;;;5044151;28;20498;-84
2021/12/25 07:11:49;;;;;;;17.13;9.80;;;8.30;99.90;;;;;;5041969;28;20494;-84
2021/12/25 07:14:15;;;;;;;14.43;9.90;;;8.20;99.90;;;;;;5022334;28;20526;-83
2021/12/25 07:16:41;;;;;;;12.23;7.23;;;8.10;99.90;;;;;;5023422;28;22558;-84
2021/12/25 07:19:10;;;;;;;12.83;7.70;;;8.10;99.90;;;;;;5041937;28;20503;-83
2021/12/25 07:21:35;;;;;;;10.02;7.43;;;8.10;99.90;;;;;;5040172;28;20192;-83
2021/12/25 07:24:03;;;;;;;14.77;7.43;;;8.20;99.90;;;;;;5038962;28;20273;-83
2021/12/25 07:26:29;;;;;;;10.57;6.80;;;8.30;99.90;;;;;;5040046;28;20210;-84
2021/12/25 07:28:55;;;;;;;12.45;6.53;;;8.30;99.90;;;;;;5039423;28;20812;-82
2021/12/25 07:31:21;;;;;;;10.27;7.17;;;8.30;99.90;;;;;;5020642;28;20205;-82
2021/12/25 07:33:46;;;;;;;12.33;7.53;;;8.30;99.90;;;;;;5037273;28;20185;-83
2021/12/25 07:36:13;;;;;;;9.40;7.20;;;8.30;99.90;;;;;;5038333;28;20242;-83
2021/12/25 07:38:39;;;;;;;12.70;7.10;;;8.30;99.90;;;;;;5041840;28;20815;-83
2021/12/25 07:41:05;;;;;;;13.32;6.82;;;;;;;;;;5039954;28;20212;-81
2021/12/25 07:43:31;;;;;;;9.03;7.27;;;;;;;;;;5041745;28;20231;-82
2021/12/25 07:45:57;;;;;;;14.75;8.25;;;8.40;99.90;;;;;;5038599;28;20555;-82
2021/12/25 07:48:25;;;;;;;10.73;5.77;;;;;;;;;;5040376;28;20272;-82
2021/12/25 07:50:51;;;;;;;9.82;6.13;;;;;;;;;;5039690;28;20428;-82
2021/12/25 07:53:17;;;;;;;13.18;6.72;;;;;;;;;;5039818;28;20185;-82
2021/12/25 07:55:44;;;;;;;10.47;5.77;;;8.50;99.90;;;;;;5039243;28;20213;-81
2021/12/25 07:58:10;;;;;;;9.82;5.70;;;;;;;;;;5038228;28;20451;-83
2021/12/25 08:00:36;;;;;;;8.23;5.30;;;8.40;99.90;;;;;;5038739;28;20209;-82
2021/12/25 08:03:02;;;;;;;10.13;6.33;;;8.50;99.90;;;;;;5040638;28;20216;-82
2021/12/25 08:05:29;;;;;;;9.38;5.85;;;;;;;;;;5040075;28;20486;-82
2021/12/25 08:07:54;;;;;;;9.48;6.70;;;8.60;99.90;;;;;;5038879;28;20708;-82
2021/12/25 08:10:21;;;;;;;12.47;6.70;;;8.50;99.90;;;;;;5041859;28;20197;-82
2021/12/25 08:12:53;;;;;;;10.15;5.50;;;8.60;99.90;;;;;;5038868;28;20204;-82
2021/12/25 08:15:22;;;;;;;14.95;8.20;;;8.60;99.90;;;;;;5036676;28;20235;-82
2021/12/25 08:17:48;;;;;;;14.27;7.53;;;;;;;;;;5036427;28;21715;-82
2021/12/25 08:20:14;;;;;;;11.80;7.60;;;;;;;;;;5036227;28;20181;-82
2021/12/25 08:22:41;;;;;;;13.80;8.13;;;8.60;99.90;;;;;;5038841;28;20182;-82
2021/12/25 08:25:08;;;;;;;11.77;6.55;;;8.50;99.90;;;;;;5041255;28;20196;-82
2021/12/25 08:27:34;;;;;;;13.18;6.95;;;8.60;99.90;;;;;;5040705;28;20229;-82
2021/12/25 08:29:59;;;;;;;13.70;8.30;;;8.60;99.90;;;;;;5035423;28;20240;-82
2021/12/25 08:32:27;;;;;;;17.37;8.73;;;8.60;99.90;;;;;;5038943;28;20518;-82
2021/12/25 08:34:52;;;;;;;19.75;10.82;;;8.60;99.90;;;;;;5036880;28;20196;-82
2021/12/25 08:37:23;;;;;;;12.67;8.23;;;;;;;;;;5038313;28;20208;-82
2021/12/25 08:39:51;;;;;;;15.43;7.97;;;8.60;99.90;;;;;;5029771;28;20185;-82
2021/12/25 08:42:17;;;;;;;11.90;5.70;;;8.70;99.90;;;;;;5041410;28;20193;-82
2021/12/25 08:47:25;;;;;;;9.55;6.43;;;8.70;99.90;;;;;;5039475;28;21202;-82
2021/12/25 08:49:51;;;;;;;13.77;8.38;;;;;;;;;;5036729;28;20273;-82
2021/12/25 08:52:18;;;;;;;12.80;7.63;;;8.70;99.90;;;;;;5038172;28;20291;-82
2021/12/25 08:54:45;;;;;;;11.82;7.35;;;8.70;99.90;;;;;;5037612;28;20883;-82
2021/12/25 08:57:11;;;;;;;12.23;7.57;;;8.70;99.90;;;;;;5031971;23;20227;-82
2021/12/25 08:59:39;;;;;;;10.57;8.02;;;8.70;99.90;;;;;;5026633;28;20174;-85
2021/12/25 09:02:10;;;;;;;14.32;7.70;;;8.70;99.90;;;;;;5031131;28;20177;-89
2021/12/25 09:04:37;;;;;;;9.23;6.00;;;8.80;99.90;;;;;;5026912;28;20177;-86
2021/12/25 09:07:03;;;;;;;14.68;8.38;;;8.80;99.90;;;;;;5025564;28;20259;-87
2021/12/25 09:09:28;;;;;;;13.80;7.78;;;8.80;99.90;;;;;;5003324;28;20169;-84
2021/12/25 09:11:55;;;;;;;13.80;7.17;;;8.80;99.90;;;;;;5023708;28;20658;-80
2021/12/25 09:14:21;;;;;;;17.20;10.48;;;;;;;;;;5026853;28;20194;-86
2021/12/25 09:16:46;;;;;;;9.60;5.47;;;8.90;99.90;;;;;;5021479;28;20567;-87
2021/12/25 09:19:12;;;;;;;13.60;5.83;;;;;;;;;;5023079;28;20180;-85
2021/12/25 09:21:38;;;;;;;14.90;7.63;;;8.90;99.90;;;;;;5010205;28;20658;-84
2021/12/25 09:24:04;;;;;;;7.73;5.40;;;8.90;99.90;;;;;;5021304;28;20444;-83
2021/12/25 09:26:30;;;;;;;11.40;7.43;;;;;;;;;;4999615;28;20197;-85
2021/12/25 09:28:55;;;;;;;8.23;5.38;;;8.90;99.90;;;;;;5009846;28;20878;-84
2021/12/25 09:31:21;;;;;;;12.50;6.77;;;8.90;99.90;;;;;;5013597;28;20197;-83
2021/12/25 09:33:47;;;;;;;14.90;6.17;;;;;;;;;;5015359;28;20332;-84
2021/12/25 09:36:13;;;;;;;9.57;6.32;;;8.90;99.90;;;;;;5001857;28;20429;-85
2021/12/25 09:38:39;;;;;;;11.60;6.03;;;;;;;;;;5003447;28;20248;-82
2021/12/25 09:41:05;;;;;;;10.23;5.97;;;8.90;99.90;;;;;;5024673;28;20188;-89
2021/12/25 09:43:32;;;;;;;13.07;8.80;;;8.90;99.90;;;;;;5022476;28;20194;-83
2021/12/25 09:45:58;;;;;;;11.05;7.00;;;;;;;;;;5012714;28;20196;-85
2021/12/25 09:48:24;;;;;;;10.60;7.03;;;;;;;;;;5019200;28;20216;-86
2021/12/25 09:50:50;;;;;;;16.27;7.80;;;8.90;99.90;;;;;;5001344;28;20181;-87
2021/12/25 09:53:18;;;;;;;13.73;8.00;;;8.90;99.90;;;;;;5005927;28;20428;-86
2021/12/25 09:55:44;;;;;;;8.73;5.57;;;8.90;99.90;;;;;;5005437;28;20195;-83
2021/12/25 09:58:10;;;;;;;10.50;5.72;;;8.90;99.90;;;;;;5006544;28;20213;-83
2021/12/25 10:00:42;;;;;;;8.37;5.93;;;9.00;99.90;;;;;;5018651;28;20646;-86
2021/12/25 10:03:08;;;;;;;11.70;7.50;;;9.00;99.90;;;;;;4999874;28;20178;-84
2021/12/25 10:05:41;;;;;;;14.00;7.50;;;9.10;99.90;;;;;;5002393;28;20194;-85
2021/12/25 10:08:12;;;;;;;11.52;7.32;;;9.20;99.90;;;;;;5016988;28;20194;-85
2021/12/25 10:10:51;;;;;;;10.27;7.13;;;9.30;99.90;;;;;;5001210;28;20189;-82
2021/12/25 10:13:22;;;;;;;8.63;6.32;;;9.30;99.90;;;;;;5015701;28;20212;-85
2021/12/25 10:15:50;;;;;;;8.63;5.90;;;9.40;99.90;;;;;;4993967;28;20186;-85
2021/12/25 10:18:23;;;;;;;9.65;6.60;;;10.40;99.90;;;;;;5006419;28;20194;-85
2021/12/25 10:20:49;;;;;;;10.52;6.88;;;;;;;;;;5005726;28;20651;-87
2021/12/25 10:23:22;;;;;;;14.70;6.40;;;;;;;;;;5026056;28;20216;-85
2021/12/25 10:25:57;;;;;;;9.57;5.93;;;9.60;99.90;;;;;;5011757;28;20431;-84
2021/12/25 10:28:36;;;;;;;12.63;5.60;;;9.50;99.90;;;;;;5007749;28;20286;-87
2021/12/25 10:31:16;;;;;;;12.00;5.57;;;9.40;99.90;;;;;;5020934;28;20182;-84
2021/12/25 10:33:44;;;;;;;10.00;6.00;;;9.40;99.90;;;;;;4995520;28;20248;-83
2021/12/25 10:36:26;;;;;;;8.70;5.53;;;9.30;99.90;;;;;;5005090;28;20597;-85
2021/12/25 10:39:01;;;;;;;9.45;4.57;;;9.30;99.90;;;;;;4999474;28;20192;-83
2021/12/25 10:41:27;;;;;;;6.40;4.80;;;9.30;99.90;;;;;;5027142;28;20246;-85
2021/12/25 10:44:18;;;;;;;9.80;6.88;;;9.30;99.90;;;;;;5011128;28;20189;-80
2021/12/25 10:46:49;;;;;;;7.05;4.57;;;9.30;99.90;;;;;;5023429;28;20780;-86
2021/12/25 10:49:15;;;;;;;6.95;4.82;;;;;;;;;;5007155;28;20287;-83
2021/12/25 10:51:41;;;;;;;11.20;4.63;;;;;;;;;;5021325;28;20205;-84
2021/12/25 10:54:12;;;;;;;9.57;5.70;;;9.30;99.90;;;;;;5025598;28;20192;-84
2021/12/25 10:56:39;;;;;;;6.68;4.60;;;9.20;99.90;;;;;;5010431;28;20617;-83
2021/12/25 10:59:08;;;;;;;8.77;5.80;;;9.20;99.90;;;;;;5011533;28;20178;-84
2021/12/25 11:01:48;;;;;;;11.00;5.40;;;9.60;99.90;;;;;;5011058;28;20192;-85
2021/12/25 11:04:30;;;;;;;8.50;5.00;;;9.20;99.90;;;;;;5009200;28;21614;-85
2021/12/25 11:06:57;;;;;;;7.10;5.45;;;9.20;99.90;;;;;;5012193;28;20220;-83
2021/12/25 11:09:23;;;;;;;11.40;5.60;;;9.20;99.90;;;;;;5025834;28;20275;-86
2021/12/25 11:12:15;;;;;;;6.77;4.80;;;9.20;99.90;;;;;;5022915;28;20201;-84
2021/12/25 11:14:41;;;;;;;8.77;5.72;;;9.20;99.90;;;;;;4996342;28;20436;-85
2021/12/25 11:17:23;;;;;;;6.60;3.97;;;9.30;99.90;;;;;;5012889;28;20206;-85
2021/12/25 11:19:58;;;;;;;6.03;4.65;;;9.30;99.90;;;;;;5001329;28;20178;-84
2021/12/25 11:22:25;;;;;;;6.18;4.80;;;9.30;99.90;;;;;;5017964;28;20174;-84
2021/12/25 11:24:51;;;;;;;6.55;4.85;;;9.40;99.90;;;;;;5022659;28;20174;-87
2021/12/25 11:27:17;;;;;;;7.35;4.70;;;9.60;99.90;;;;;;5005338;28;20206;-85
2021/12/25 11:29:43;;;;;;;8.50;4.70;;;;;;;;;;4994500;28;20213;-85
2021/12/25 11:32:11;;;;;;;6.00;4.50;;;9.70;99.90;;;;;;5012178;28;20209;-84
2021/12/25 11:34:37;;;;;;;8.85;4.93;;;;;;;;;;5017240;28;20467;-83
2021/12/25 11:37:05;;;;;;;9.67;5.47;;;9.60;99.90;;;;;;5013000;28;20258;-84
2021/12/25 11:39:31;;;;;;;12.32;4.70;;;9.60;99.90;;;;;;5005407;28;20475;-86
2021/12/25 11:42:07;;;;;;;7.40;3.90;;;9.60;99.90;;;;;;5025900;28;20189;-89
2021/12/25 11:44:38;;;;;;;5.85;3.97;;;9.60;99.90;;;;;;5008281;28;20670;-84
2021/12/25 11:47:06;;;;;;;8.23;4.47;;;9.60;99.90;;;;;;5015253;28;20237;-87
2021/12/25 11:49:32;;;;;;;6.18;4.25;;;;;;;;;;5021471;28;20216;-84
2021/12/25 11:52:14;;;;;;;10.38;4.70;;;9.50;99.90;;;;;;5012244;28;20285;-85
2021/12/25 11:55:09;;;;;;;9.73;5.47;;;9.50;99.90;;;;;;5006159;28;20192;-83
2021/12/25 11:57:50;;;;;;;5.80;4.00;;;9.50;99.90;;;;;;5021864;28;20248;-84
2021/12/25 12:00:41;;;;;;;9.00;5.60;;;9.50;99.90;;;;;;5022872;28;20270;-84
2021/12/25 12:03:36;;;;;;;17.27;5.25;;;9.60;99.90;;;;;;5020310;28;20232;-84
2021/12/25 12:06:02;;;;;;;5.60;3.88;;;;;;;;;;5023594;28;20177;-83
2021/12/25 12:08:28;;;;;;;10.97;5.47;;;;;;;;;;5003306;28;20193;-85
2021/12/25 12:10:57;;;;;;;7.23;4.87;;;9.90;99.90;;;;;;5009783;28;20540;-81
2021/12/25 12:13:23;;;;;;;8.15;4.75;;;;;;;;;;5006304;28;20440;-88
2021/12/25 12:15:50;;;;;;;8.17;5.00;;;10.00;99.90;;;;;;5021449;28;20173;-83
2021/12/25 12:18:26;;;;;;;6.35;3.97;;;9.90;99.90;;;;;;5017131;28;20448;-81
2021/12/25 12:20:56;;;;;;;8.73;5.10;;;10.00;99.90;;;;;;5002433;28;20173;-82
2021/12/25 12:23:48;;;;;;;6.95;5.05;;;9.90;99.90;;;;;;5018529;28;20953;-82
2021/12/25 12:26:34;;;;;;;9.85;5.00;;;10.00;99.90;;;;;;5009569;28;20277;-83
2021/12/25 12:29:00;;;;;;;8.52;4.22;;;;;;;;;;4991555;28;20191;-81
2021/12/25 12:31:40;;;;;;;8.00;5.10;;;9.90;99.90;;;;;;5004186;28;20205;-80
2021/12/25 12:34:31;;;;;;;6.47;5.10;;;9.80;99.90;;;;;;5013815;28;20443;-84
2021/12/25 12:37:15;;;;;;;7.10;4.50;;;9.70;99.90;;;;;;5023524;28;20202;-82
2021/12/25 12:40:05;;;;;;;13.60;5.72;;;9.70;99.90;;;;;;5014056;28;20220;-80
2021/12/25 12:42:41;;;;;;;7.40;4.63;;;9.80;99.90;;;;;;5022607;28;20291;-83
2021/12/25 12:45:19;;;;;;;6.95;5.43;;;9.40;99.90;;;;;;5024354;28;20599;-82
2021/12/25 12:48:19;;;;;;;8.20;5.35;;;7.90;99.90;;;;;;5004580;28;20193;-82
2021/12/25 12:50:51;;;;;;;6.00;4.07;;;7.90;99.90;;;;;;5020657;28;20189;-80
2021/12/25 12:53:17;;;;;;;6.13;4.40;;;7.30;99.90;;;;;;4999724;28;20672;-82
2021/12/25 12:55:46;;;;;;;9.75;5.30;;;7.10;99.90;;;;;;5018416;28;20273;-84
2021/12/25 12:58:23;;;;;;;5.93;4.50;;;6.90;99.90;;;;;;5003409;28;20301;-84
2021/12/25 13:00:53;;;;;;;5.60;3.58;;;6.70;99.90;;;;;;5026749;28;20648;-82
2021/12/25 13:03:19;;;;;;;8.68;3.85;;;6.70;99.90;;;;;;5025625;28;20542;-82
2021/12/25 13:05:51;;;;;;;6.30;4.10;;;6.70;99.90;;;;;;5023813;28;20193;-83
2021/12/25 13:08:24;;;;;;;6.80;4.25;;;6.60;99.90;;;;;;5006122;28;20519;-84
2021/12/25 13:10:52;;;;;;;4.68;3.70;;;6.60;99.90;;;;;;5010831;28;20185;-83
2021/12/25 13:13:25;;;;;;;6.93;3.72;;;6.60;99.90;;;;;;5007962;28;22099;-84
2021/12/25 13:16:10;;;;;;;5.88;3.78;;;6.50;99.90;;;;;;5009096;28;20181;-87
2021/12/25 13:18:40;;;;;;;4.65;3.17;;;6.50;99.90;;;;;;5002612;28;20722;-83
2021/12/25 13:21:08;;;;;;;4.70;4.05;;;6.50;99.90;;;;;;5004781;28;20570;-81
2021/12/25 13:23:37;;;;;;;4.78;3.20;;;6.50;99.90;;;;;;5009826;28;20256;-84
2021/12/25 13:26:09;;;;;;;5.93;4.05;;;6.40;99.90;;;;;;5015685;28;20190;-82
2021/12/25 13:28:41;;;;;;;7.93;3.97;;;6.30;99.90;;;;;;5019897;28;20410;-83
2021/12/25 13:31:12;;;;;;;5.32;3.95;;;6.20;99.90;;;;;;5023307;28;20290;-82
2021/12/25 13:33:47;;;;;;;5.82;4.38;;;6.00;99.90;;;;;;5021730;28;20185;-83
2021/12/25 13:36:18;;;;;;;7.63;4.38;;;5.90;99.90;;;;;;5019917;28;20638;-87
2021/12/25 13:38:46;;;;;;;5.70;4.03;;;5.90;99.90;;;;;;5007972;28;20690;-85
2021/12/25 13:41:14;;;;;;;7.78;4.88;;;5.70;99.90;;;;;;5005361;28;20186;-84
2021/12/25 13:43:40;;;;;;;6.97;5.65;;;5.70;99.90;;;;;;5022699;28;20713;-84
2021/12/25 13:46:06;;;;;;;5.57;4.63;;;;;;;;;;5006101;28;20189;-87
2021/12/25 13:48:39;;;;;;;6.70;5.10;;;5.60;99.90;;;;;;5017048;28;20553;-87
2021/12/25 13:51:05;;;;;;;11.98;4.85;;;5.70;99.90;;;;;;5000333;28;20440;-83
2021/12/25 13:53:31;;;;;;;7.33;4.93;;;;;;;;;;5023176;28;20192;-83
2021/12/25 13:56:05;;;;;;;6.40;4.15;;;5.70;99.90;;;;;;5000684;28;20436;-81
2021/12/25 13:58:30;;;;;;;5.97;4.68;;;5.50;99.90;;;;;;5005617;28;20221;-81
2021/12/25 14:00:56;;;;;;;8.30;4.97;;;5.60;99.90;;;;;;5011263;28;20210;-81
2021/12/25 14:03:25;;;;;;;9.03;5.93;;;5.50;99.90;;;;;;4998794;28;20174;-81
2021/12/25 14:05:54;;;;;;;6.15;4.20;;;5.40;99.90;;;;;;5003521;28;20781;-84
2021/12/25 14:08:25;;;;;;;7.38;4.60;;;5.40;99.90;;;;;;5011167;28;20207;-82
2021/12/25 14:10:59;;;;;;;7.55;6.35;;;5.30;99.90;;;;;;5003565;28;20188;-83
2021/12/25 14:13:25;;;;;;;5.47;4.50;;;5.20;99.90;;;;;;4999920;28;20188;-81
2021/12/25 14:15:58;;;;;;;12.43;9.75;;;5.30;99.90;;;;;;5006492;28;20746;-83
2021/12/25 14:18:33;;;;;;;6.43;4.38;;;5.30;99.90;;;;;;5020125;28;20216;-82
2021/12/25 14:21:18;;;;;;;7.13;4.78;;;5.10;99.90;;;;;;5022743;28;20178;-82
2021/12/25 14:23:44;;;;;;;9.88;7.38;;;5.10;99.90;;;;;;5007346;28;20202;-82